Hauptseite
METAR-TAF:

METAR-TAF

Flughäfen :

Kunming, China

Flughafen Kunming-Changshui

Breite: 25-01N, Länge: 102-41E, Höhe: 1892 m

Beobachtung

Neuester Wetterbericht von vor 49 Minuten, um 23:00 UTC
Wind 4 kt aus Nordost
Temperatur 16°C
Luftfeuchtigkeit 100%
Luftdruck 1018 hPa
Sichtweite: 6000 m
Aufgelockert bewölkt in der Höhe von 2300 ft
Durchbrochene Bewölkung in der Höhe von 4000 ft

METAR: ZPPP 162300Z 05002MPS 6000 SCT023 BKN040 16/16 Q1018 NOSIG

Zeit: 07:49 (23:49 UTC)

Prognose

Neuester Wetterbericht von vor 4 Stunden und 40 Minuten, um 19:09 UTC
Gültige Prognose vom 17 um 00 UTC bis 17 um 24 UTC
Wind 8 kt aus Ost/Nordost
Sichtweite: 6000 m
Leicht bewölkt in der Höhe von 300 ft
Aufgelockert bewölkt in der Höhe von 2000 ft
Durchbrochene Bewölkung in der Höhe von 4000 ft

TAF: ZPPP 161909Z 1700/1724 06004MPS 6000 FEW003 SCT020 BKN040 TX24/1708Z TN16/1700Z

Wetterbeobachtungen und Prognosen von mehr als 4000 Flughäfen (METAR und TAF Bericht).

Die verfügbaren Stationen werden durch gelbe und rote Markierungen auf der Karte dargestellt.

Führen Sie die Maus auf sie, um den Namen der Station zu sehen.

Darauf klicken, um die Beobachtung von Wetterbeobachtungen und Prognosen zu sehen.

Um die Karte zu ändern : klicken Sie auf den grünen Tasten mit einem schwarzen Kreuz Zum Vergrößern, auf den grünen Button mit einem Gedankenstrich zu verkleinern, oder auf die grünen Pfeile für benachbarte Karten.


METAR-TAF: